Main page
METAR-TAF:

METAR-TAF

Airports :

Mashhad International Airport

Mashhad, Iran

latitude: 36-16N, longitude: 059-38E, elevation: 989 m

Current weather observation

The report was made 20 minutes ago, at 10:30 UTC
Wind 10 kt from the Northeast
Temperature 37°C
Humidity 29%
Pressure 1010 hPa
Visibility 10 km or more
no clouds below 1500 m and no cumulonimbus

METAR: OIMM 011030Z 05010KT CAVOK 37/16 Q1010 A2983

Time: 15:20 (10:50 UTC)

Forecast

The report was made 5 hours and 20 minutes ago, at 05:30 UTC
Forecast valid from 01 at 06 UTC to 02 at 12 UTC
Wind 8 kt from the East/Southeast
Visibility: 7000 m
Temporary
from 01 at 09 UTC to 01 at 15 UTC
Wind 20 kt from the North/Northeast
Visibility: 4000 m
sand
Temporary
from 02 at 09 UTC to 02 at 12 UTC
Wind 20 kt from the East
Visibility: 4000 m
sand

TAF: OIMM 010530Z 0106/0212 11008KT 7000 NSC TEMPO 0109/0115 03020KT 4000 SA NSC TEMPO 0209/0212 09020KT 4000 SA NSC

Weather observations and forecasts of more than 4000 airports (METAR and TAF reports).

The available stations are represented by yellow and red dots on the map.

Hover mouse over dot to see the name of the station.

Then click to see weather observations and forecasts.

To change the map : click on the green buttons with a black cross to zoom in, on the green button with a dash to zoom out, or on the green arrows for adjacent maps.


METAR-TAF: